Terminal Aerodrome Forecast
Issued by NWS

Home | Current Version | Previous Version | Text Only | Print | Product List | Glossary On
Versions: 1 2 3 4 5 6 7 8 9 10 11 12 13 14 15
933
FTUS44 KTSA 110538
TAFMLC
TAF
KMLC 110538Z 1106/1206 21006KT P6SM SKC
     FM110700 24007KT P6SM SKC WS012/27028KT
     FM110900 29008KT P6SM FEW250
     FM111000 33008KT P6SM FEW250
     FM120000 02005KT P6SM FEW250=

USA.gov is the U.S. government's official web portal to all federal, state and local government web resources and services.